PWSweather.com
Personal Weather Stations
Station Observations
ISYDDANM23
Felsted, AabenraaDK 6200

FelstedAabenraaDK 6200

Lat: 54.977066, Lon: 9.507192

Elevation: 135

Station Type: Davis Vantage Pro 2 Plus 24H

http://www.valkaer.dk

High Low Average
Temperature 59.5°F15.3°C 35.0°F1.7°C 48.8°F9.3°C
Dew Point 43.9°F6.6°C 29.7°F-1.3°C 35.7°F2.1°C
Winds 6.9 mph 11.1 kmh Calm Calm 2.0 mph SSE3.2 kmh SSE
Wind Gusts 11.5 mph18.5 kmh -- 4.0 mph6.4 kmh
Humidity 86% 34% 63%
Pressure 30.63 in1037.3 mb 30.46 in1031.5 mb -
Precipitation 0.00 in0.0 mm - -
Hour Temp Dew Point Humidity Winds Wind Gusts Pressure Precip Precip Rate Daily Precip Total
12:00 AM 41.8°F5.4°C 33.8°F1.0°C 73% 3.5 mph NNW5.6 kmh NNW 3.5 mph5.6 kmh 30.63 in1037.3 mb - 0.00 in0.0 mm 0.00 in0.0 mm
12:10 AM 41.7°F5.4°C 33.7°F0.9°C 73% 2.3 mph NNW3.7 kmh NNW 3.5 mph5.6 kmh 30.63 in1037.3 mb - 0.00 in0.0 mm 0.00 in0.0 mm
12:15 AM 41.6°F5.3°C 33.6°F0.9°C 73% 1.2 mph N1.9 kmh N 3.5 mph5.6 kmh 30.63 in1037.3 mb - 0.00 in0.0 mm 0.00 in0.0 mm
12:20 AM 41.5°F5.3°C 33.1°F0.6°C 72% 1.2 mph N1.9 kmh N 3.5 mph5.6 kmh 30.63 in1037.3 mb - 0.00 in0.0 mm 0.00 in0.0 mm
12:25 AM 41.6°F5.3°C 32.9°F0.5°C 71% 2.3 mph N3.7 kmh N 3.5 mph5.6 kmh 30.63 in1037.3 mb - 0.00 in0.0 mm 0.00 in0.0 mm
12:30 AM 41.6°F5.3°C 33.2°F0.7°C 72% 2.3 mph N3.7 kmh N 3.5 mph5.6 kmh 30.63 in1037.3 mb - 0.00 in0.0 mm 0.00 in0.0 mm
12:35 AM 41.3°F5.2°C 33.0°F0.6°C 72% 2.3 mph NW3.7 kmh NW 3.5 mph5.6 kmh 30.63 in1037.3 mb - 0.00 in0.0 mm 0.00 in0.0 mm
12:40 AM 41.0°F5.0°C 33.0°F0.6°C 73% 2.3 mph NNW3.7 kmh NNW 3.5 mph5.6 kmh 30.63 in1037.3 mb - 0.00 in0.0 mm 0.00 in0.0 mm
12:45 AM 40.9°F4.9°C 32.9°F0.5°C 73% 1.2 mph NNW1.9 kmh NNW 2.3 mph3.7 kmh 30.63 in1037.3 mb - 0.00 in0.0 mm 0.00 in0.0 mm
12:50 AM 40.7°F4.8°C 32.7°F0.4°C 73% 2.3 mph NNW3.7 kmh NNW 3.5 mph5.6 kmh 30.63 in1037.3 mb - 0.00 in0.0 mm 0.00 in0.0 mm
12:55 AM 40.6°F4.8°C 33.0°F0.6°C 74% 2.3 mph N3.7 kmh N 4.6 mph7.4 kmh 30.63 in1037.3 mb - 0.00 in0.0 mm 0.00 in0.0 mm
01:00 AM 40.7°F4.8°C 32.7°F0.4°C 73% 2.3 mph N3.7 kmh N 3.5 mph5.6 kmh 30.63 in1037.3 mb - 0.00 in0.0 mm 0.00 in0.0 mm
01:10 AM 40.3°F4.6°C 32.4°F0.2°C 73% 2.3 mph NNW3.7 kmh NNW 3.5 mph5.6 kmh 30.63 in1037.3 mb - 0.00 in0.0 mm 0.00 in0.0 mm
01:15 AM 40.3°F4.6°C 32.7°F0.4°C 74% 2.3 mph NNW3.7 kmh NNW 3.5 mph5.6 kmh 30.63 in1037.3 mb - 0.00 in0.0 mm 0.00 in0.0 mm
01:20 AM 40.2°F4.6°C 32.2°F0.1°C 73% 2.3 mph N3.7 kmh N 3.5 mph5.6 kmh 30.63 in1037.3 mb - 0.00 in0.0 mm 0.00 in0.0 mm
01:25 AM 40.3°F4.6°C 32.3°F0.2°C 73% 2.3 mph N3.7 kmh N 3.5 mph5.6 kmh 30.63 in1037.3 mb - 0.00 in0.0 mm 0.00 in0.0 mm
01:30 AM 40.6°F4.8°C 32.6°F0.3°C 73% 2.3 mph N3.7 kmh N 3.5 mph5.6 kmh 30.63 in1037.3 mb - 0.00 in0.0 mm 0.00 in0.0 mm
01:35 AM 40.8°F4.9°C 32.5°F0.3°C 72% 2.3 mph 3.7 kmh 3.5 mph5.6 kmh 30.63 in1037.3 mb - 0.00 in0.0 mm 0.00 in0.0 mm
01:40 AM 40.8°F4.9°C 32.5°F0.3°C 72% 2.3 mph NNW3.7 kmh NNW 3.5 mph5.6 kmh 30.63 in1037.3 mb - 0.00 in0.0 mm 0.00 in0.0 mm
01:45 AM 40.6°F4.8°C 32.6°F0.3°C 73% 1.2 mph NNW1.9 kmh NNW 2.3 mph3.7 kmh 30.63 in1037.3 mb - 0.00 in0.0 mm 0.00 in0.0 mm
01:50 AM 40.5°F4.7°C 32.5°F0.3°C 73% 1.2 mph N1.9 kmh N 2.3 mph3.7 kmh 30.63 in1037.3 mb - 0.00 in0.0 mm 0.00 in0.0 mm
01:55 AM 40.3°F4.6°C 32.7°F0.4°C 74% 1.2 mph NNW1.9 kmh NNW 3.5 mph5.6 kmh 30.62 in1036.9 mb - 0.00 in0.0 mm 0.00 in0.0 mm
02:00 AM 40.2°F4.6°C 32.6°F0.3°C 74% 1.2 mph NNW1.9 kmh NNW 2.3 mph3.7 kmh 30.62 in1036.9 mb - 0.00 in0.0 mm 0.00 in0.0 mm
02:10 AM 40.3°F4.6°C 32.7°F0.4°C 74% 1.2 mph N1.9 kmh N 3.5 mph5.6 kmh 30.63 in1037.3 mb - 0.00 in0.0 mm 0.00 in0.0 mm
02:15 AM 40.2°F4.6°C 32.6°F0.3°C 74% 1.2 mph N1.9 kmh N 2.3 mph3.7 kmh 30.62 in1036.9 mb - 0.00 in0.0 mm 0.00 in0.0 mm
02:20 AM 40.1°F4.5°C 32.8°F0.4°C 75% 1.2 mph N1.9 kmh N 3.5 mph5.6 kmh 30.62 in1036.9 mb - 0.00 in0.0 mm 0.00 in0.0 mm
02:25 AM 40.1°F4.5°C 32.8°F0.4°C 75% 1.2 mph N1.9 kmh N 2.3 mph3.7 kmh 30.62 in1036.9 mb - 0.00 in0.0 mm 0.00 in0.0 mm
02:30 AM 39.5°F4.2°C 31.9°F-0.1°C 74% Calm Calm 1.2 mph1.9 kmh 30.62 in1036.9 mb - 0.00 in0.0 mm 0.00 in0.0 mm
02:35 AM 37.7°F3.2°C 31.5°F-0.3°C 78% Calm Calm -- 30.62 in1036.9 mb - 0.00 in0.0 mm 0.00 in0.0 mm
02:40 AM 38.3°F3.5°C 32.3°F0.2°C 79% 1.2 mph N1.9 kmh N 2.3 mph3.7 kmh 30.63 in1037.3 mb - 0.00 in0.0 mm 0.00 in0.0 mm
02:45 AM 39.0°F3.9°C 32.7°F0.4°C 78% 1.2 mph N1.9 kmh N 2.3 mph3.7 kmh 30.63 in1037.3 mb - 0.00 in0.0 mm 0.00 in0.0 mm
02:50 AM 39.3°F4.1°C 32.7°F0.4°C 77% 1.2 mph N1.9 kmh N 2.3 mph3.7 kmh 30.62 in1036.9 mb - 0.00 in0.0 mm 0.00 in0.0 mm
02:55 AM 39.6°F4.2°C 33.0°F0.6°C 77% 1.2 mph N1.9 kmh N 2.3 mph3.7 kmh 30.62 in1036.9 mb - 0.00 in0.0 mm 0.00 in0.0 mm
03:00 AM 39.6°F4.2°C 32.9°F0.5°C 77% 2.3 mph N3.7 kmh N 3.5 mph5.6 kmh 30.62 in1036.9 mb - 0.00 in0.0 mm 0.00 in0.0 mm
03:10 AM 39.4°F4.1°C 32.8°F0.4°C 77% 2.3 mph N3.7 kmh N 3.5 mph5.6 kmh 30.62 in1036.9 mb - 0.00 in0.0 mm 0.00 in0.0 mm
03:15 AM 39.4°F4.1°C 32.8°F0.4°C 77% 2.3 mph N3.7 kmh N 4.6 mph7.4 kmh 30.62 in1036.9 mb - 0.00 in0.0 mm 0.00 in0.0 mm
03:20 AM 39.3°F4.1°C 32.7°F0.4°C 77% 1.2 mph NNW1.9 kmh NNW 3.5 mph5.6 kmh 30.62 in1036.9 mb - 0.00 in0.0 mm 0.00 in0.0 mm
03:25 AM 39.1°F3.9°C 32.8°F0.4°C 78% 1.2 mph N1.9 kmh N 3.5 mph5.6 kmh 30.62 in1036.9 mb - 0.00 in0.0 mm 0.00 in0.0 mm
03:30 AM 39.3°F4.1°C 33.0°F0.6°C 78% 1.2 mph N1.9 kmh N 2.3 mph3.7 kmh 30.62 in1036.9 mb - 0.00 in0.0 mm 0.00 in0.0 mm
03:35 AM 39.3°F4.1°C 33.0°F0.6°C 78% 1.2 mph N1.9 kmh N 2.3 mph3.7 kmh 30.62 in1036.9 mb - 0.00 in0.0 mm 0.00 in0.0 mm
03:40 AM 39.2°F4.0°C 32.9°F0.5°C 78% 1.2 mph N1.9 kmh N 1.2 mph1.9 kmh 30.62 in1036.9 mb - 0.00 in0.0 mm 0.00 in0.0 mm
03:45 AM 38.8°F3.8°C 32.2°F0.1°C 77% Calm Calm 1.2 mph1.9 kmh 30.62 in1036.9 mb - 0.00 in0.0 mm 0.00 in0.0 mm
03:50 AM 38.7°F3.7°C 32.7°F0.4°C 79% Calm Calm -- 30.62 in1036.9 mb - 0.00 in0.0 mm 0.00 in0.0 mm
03:55 AM 38.6°F3.7°C 33.0°F0.6°C 80% 1.2 mph N1.9 kmh N 2.3 mph3.7 kmh 30.62 in1036.9 mb - 0.00 in0.0 mm 0.00 in0.0 mm
04:00 AM 38.7°F3.7°C 33.0°F0.6°C 80% 2.3 mph NNW3.7 kmh NNW 3.5 mph5.6 kmh 30.62 in1036.9 mb - 0.00 in0.0 mm 0.00 in0.0 mm
04:10 AM 39.3°F4.1°C 33.3°F0.7°C 79% 2.3 mph N3.7 kmh N 2.3 mph3.7 kmh 30.62 in1036.9 mb - 0.00 in0.0 mm 0.00 in0.0 mm
04:15 AM 39.7°F4.3°C 33.4°F0.8°C 78% 2.3 mph N3.7 kmh N 3.5 mph5.6 kmh 30.62 in1036.9 mb - 0.00 in0.0 mm 0.00 in0.0 mm
04:20 AM 39.8°F4.3°C 33.5°F0.8°C 78% 1.2 mph N1.9 kmh N 2.3 mph3.7 kmh 30.62 in1036.9 mb - 0.00 in0.0 mm 0.00 in0.0 mm
04:25 AM 39.7°F4.3°C 33.4°F0.8°C 78% 1.2 mph NNW1.9 kmh NNW 2.3 mph3.7 kmh 30.62 in1036.9 mb - 0.00 in0.0 mm 0.00 in0.0 mm
04:30 AM 39.0°F3.9°C 32.8°F0.4°C 78% 1.2 mph NNW1.9 kmh NNW 2.3 mph3.7 kmh 30.62 in1036.9 mb - 0.00 in0.0 mm 0.00 in0.0 mm
04:35 AM 38.8°F3.8°C 32.9°F0.5°C 79% 2.3 mph NW3.7 kmh NW 2.3 mph3.7 kmh 30.62 in1036.9 mb - 0.00 in0.0 mm 0.00 in0.0 mm
04:40 AM 38.8°F3.8°C 32.6°F0.3°C 78% Calm Calm 1.2 mph1.9 kmh 30.62 in1036.9 mb - 0.00 in0.0 mm 0.00 in0.0 mm
04:45 AM 37.9°F3.3°C 32.3°F0.2°C 80% Calm Calm 1.2 mph1.9 kmh 30.62 in1036.9 mb - 0.00 in0.0 mm 0.00 in0.0 mm
04:50 AM 38.0°F3.3°C 32.1°F0.1°C 79% Calm Calm 1.2 mph1.9 kmh 30.62 in1036.9 mb - 0.00 in0.0 mm 0.00 in0.0 mm
04:55 AM 37.5°F3.1°C 32.2°F0.1°C 81% 1.2 mph NW1.9 kmh NW 1.2 mph1.9 kmh 30.61 in1036.6 mb - 0.00 in0.0 mm 0.00 in0.0 mm
05:00 AM 38.5°F3.6°C 33.2°F0.7°C 81% Calm Calm 1.2 mph1.9 kmh 30.62 in1036.9 mb - 0.00 in0.0 mm 0.00 in0.0 mm
05:10 AM 35.0°F1.7°C 30.7°F-0.7°C 84% 1.2 mph W1.9 kmh W 2.3 mph3.7 kmh 30.62 in1036.9 mb - 0.00 in0.0 mm 0.00 in0.0 mm
05:15 AM 35.3°F1.8°C 31.0°F-0.6°C 84% 1.2 mph W1.9 kmh W 2.3 mph3.7 kmh 30.61 in1036.6 mb - 0.00 in0.0 mm 0.00 in0.0 mm
05:20 AM 35.7°F2.1°C 31.9°F-0.1°C 86% Calm Calm 1.2 mph1.9 kmh 30.62 in1036.9 mb - 0.00 in0.0 mm 0.00 in0.0 mm
05:25 AM 37.1°F2.8°C 33.0°F0.6°C 85% Calm Calm -- 30.62 in1036.9 mb - 0.00 in0.0 mm 0.00 in0.0 mm
05:30 AM 38.1°F3.4°C 33.4°F0.8°C 83% Calm Calm -- 30.61 in1036.6 mb - 0.00 in0.0 mm 0.00 in0.0 mm
05:35 AM 38.8°F3.8°C 33.8°F1.0°C 82% Calm Calm -- 30.62 in1036.9 mb - 0.00 in0.0 mm 0.00 in0.0 mm
05:40 AM 39.8°F4.3°C 34.4°F1.3°C 81% Calm Calm 1.2 mph1.9 kmh 30.61 in1036.6 mb - 0.00 in0.0 mm 0.00 in0.0 mm
05:45 AM 40.2°F4.6°C 34.2°F1.2°C 79% Calm Calm 1.2 mph1.9 kmh 30.61 in1036.6 mb - 0.00 in0.0 mm 0.00 in0.0 mm
05:50 AM 38.8°F3.8°C 33.8°F1.0°C 82% Calm Calm -- 30.61 in1036.6 mb - 0.00 in0.0 mm 0.00 in0.0 mm
05:55 AM 39.1°F3.9°C 34.4°F1.3°C 83% Calm Calm -- 30.61 in1036.6 mb - 0.00 in0.0 mm 0.00 in0.0 mm
06:00 AM 41.1°F5.1°C 36.3°F2.4°C 83% Calm Calm 3.5 mph5.6 kmh 30.61 in1036.6 mb - 0.00 in0.0 mm 0.00 in0.0 mm
06:10 AM 44.3°F6.8°C 37.2°F2.9°C 76% 1.2 mph N1.9 kmh N 2.3 mph3.7 kmh 30.62 in1036.9 mb - 0.00 in0.0 mm 0.00 in0.0 mm
06:15 AM 44.8°F7.1°C 36.7°F2.6°C 73% 3.5 mph NNE5.6 kmh NNE 4.6 mph7.4 kmh 30.61 in1036.6 mb - 0.00 in0.0 mm 0.00 in0.0 mm
06:20 AM 45.0°F7.2°C 36.9°F2.7°C 73% 3.5 mph N5.6 kmh N 4.6 mph7.4 kmh 30.62 in1036.9 mb - 0.00 in0.0 mm 0.00 in0.0 mm
06:25 AM 45.0°F7.2°C 37.2°F2.9°C 74% 2.3 mph N3.7 kmh N 3.5 mph5.6 kmh 30.62 in1036.9 mb - 0.00 in0.0 mm 0.00 in0.0 mm
06:30 AM 45.3°F7.4°C 37.5°F3.1°C 74% 2.3 mph N3.7 kmh N 3.5 mph5.6 kmh 30.62 in1036.9 mb - 0.00 in0.0 mm 0.00 in0.0 mm
06:35 AM 45.5°F7.5°C 37.7°F3.2°C 74% 2.3 mph N3.7 kmh N 2.3 mph3.7 kmh 30.62 in1036.9 mb - 0.00 in0.0 mm 0.00 in0.0 mm
06:40 AM 45.9°F7.7°C 37.7°F3.2°C 73% 3.5 mph NNE5.6 kmh NNE 4.6 mph7.4 kmh 30.62 in1036.9 mb - 0.00 in0.0 mm 0.00 in0.0 mm
06:45 AM 45.9°F7.7°C 37.7°F3.2°C 73% 4.6 mph N7.4 kmh N 8.1 mph13.0 kmh 30.62 in1036.9 mb - 0.00 in0.0 mm 0.00 in0.0 mm
06:50 AM 46.2°F7.9°C 38.0°F3.3°C 73% 3.5 mph N5.6 kmh N 5.8 mph9.3 kmh 30.62 in1036.9 mb - 0.00 in0.0 mm 0.00 in0.0 mm
06:55 AM 46.3°F7.9°C 37.8°F3.2°C 72% 2.3 mph NNE3.7 kmh NNE 4.6 mph7.4 kmh 30.62 in1036.9 mb - 0.00 in0.0 mm 0.00 in0.0 mm
07:00 AM 46.1°F7.8°C 37.6°F3.1°C 72% 4.6 mph NNE7.4 kmh NNE 5.8 mph9.3 kmh 30.62 in1036.9 mb - 0.00 in0.0 mm 0.00 in0.0 mm
07:10 AM 46.5°F8.1°C 38.3°F3.5°C 73% 3.5 mph N5.6 kmh N 3.5 mph5.6 kmh 30.63 in1037.3 mb - 0.00 in0.0 mm 0.00 in0.0 mm
07:15 AM 47.0°F8.3°C 38.8°F3.8°C 73% 2.3 mph NNE3.7 kmh NNE 6.9 mph11.1 kmh 30.63 in1037.3 mb - 0.00 in0.0 mm 0.00 in0.0 mm
07:20 AM 47.0°F8.3°C 38.8°F3.8°C 73% 3.5 mph NNE5.6 kmh NNE 4.6 mph7.4 kmh 30.63 in1037.3 mb - 0.00 in0.0 mm 0.00 in0.0 mm
07:25 AM 47.2°F8.4°C 38.6°F3.7°C 72% 5.8 mph N9.3 kmh N 9.2 mph14.8 kmh 30.62 in1036.9 mb - 0.00 in0.0 mm 0.00 in0.0 mm
07:30 AM 47.2°F8.4°C 38.6°F3.7°C 72% 3.5 mph NE5.6 kmh NE 4.6 mph7.4 kmh 30.62 in1036.9 mb - 0.00 in0.0 mm 0.00 in0.0 mm
07:35 AM 47.6°F8.7°C 39.0°F3.9°C 72% 2.3 mph N3.7 kmh N 3.5 mph5.6 kmh 30.62 in1036.9 mb - 0.00 in0.0 mm 0.00 in0.0 mm
07:40 AM 48.1°F8.9°C 39.9°F4.4°C 73% 2.3 mph N3.7 kmh N 5.8 mph9.3 kmh 30.62 in1036.9 mb - 0.00 in0.0 mm 0.00 in0.0 mm
07:45 AM 48.3°F9.1°C 39.7°F4.3°C 72% 4.6 mph NNE7.4 kmh NNE 5.8 mph9.3 kmh 30.62 in1036.9 mb - 0.00 in0.0 mm 0.00 in0.0 mm
07:50 AM 48.6°F9.2°C 40.0°F4.4°C 72% 3.5 mph N5.6 kmh N 5.8 mph9.3 kmh 30.62 in1036.9 mb - 0.00 in0.0 mm 0.00 in0.0 mm
07:55 AM 49.1°F9.5°C 40.4°F4.7°C 72% 4.6 mph NNE7.4 kmh NNE 4.6 mph7.4 kmh 30.62 in1036.9 mb - 0.00 in0.0 mm 0.00 in0.0 mm
08:00 AM 49.3°F9.6°C 40.3°F4.6°C 71% 4.6 mph N7.4 kmh N 8.1 mph13.0 kmh 30.62 in1036.9 mb - 0.00 in0.0 mm 0.00 in0.0 mm
08:10 AM 50.6°F10.3°C 41.2°F5.1°C 70% 2.3 mph NE3.7 kmh NE 3.5 mph5.6 kmh 30.61 in1036.6 mb - 0.00 in0.0 mm 0.00 in0.0 mm
08:15 AM 50.1°F10.1°C 40.7°F4.8°C 70% 4.6 mph NNE7.4 kmh NNE 5.8 mph9.3 kmh 30.61 in1036.6 mb - 0.00 in0.0 mm 0.00 in0.0 mm
08:20 AM 50.0°F10.0°C 40.9°F4.9°C 71% 3.5 mph ENE5.6 kmh ENE 8.1 mph13.0 kmh 30.61 in1036.6 mb - 0.00 in0.0 mm 0.00 in0.0 mm
08:25 AM 50.4°F10.2°C 41.7°F5.4°C 72% 3.5 mph N5.6 kmh N 6.9 mph11.1 kmh 30.61 in1036.6 mb - 0.00 in0.0 mm 0.00 in0.0 mm
08:30 AM 50.5°F10.3°C 41.8°F5.4°C 72% 1.2 mph NNE1.9 kmh NNE 1.2 mph1.9 kmh 30.61 in1036.6 mb - 0.00 in0.0 mm 0.00 in0.0 mm
08:35 AM 51.2°F10.7°C 42.1°F5.6°C 71% 2.3 mph NE3.7 kmh NE 3.5 mph5.6 kmh 30.61 in1036.6 mb - 0.00 in0.0 mm 0.00 in0.0 mm
08:40 AM 50.9°F10.5°C 41.8°F5.4°C 71% 3.5 mph NNW5.6 kmh NNW 4.6 mph7.4 kmh 30.61 in1036.6 mb - 0.00 in0.0 mm 0.00 in0.0 mm
08:45 AM 50.4°F10.2°C 41.4°F5.2°C 71% 4.6 mph N7.4 kmh N 4.6 mph7.4 kmh 30.61 in1036.6 mb - 0.00 in0.0 mm 0.00 in0.0 mm
08:50 AM 50.9°F10.5°C 42.2°F5.7°C 72% 2.3 mph N3.7 kmh N 3.5 mph5.6 kmh 30.61 in1036.6 mb - 0.00 in0.0 mm 0.00 in0.0 mm
08:55 AM 51.0°F10.6°C 41.9°F5.5°C 71% 3.5 mph NNW5.6 kmh NNW 4.6 mph7.4 kmh 30.61 in1036.6 mb - 0.00 in0.0 mm 0.00 in0.0 mm
09:00 AM 51.9°F11.1°C 42.0°F5.6°C 69% 3.5 mph NE5.6 kmh NE 3.5 mph5.6 kmh 30.61 in1036.6 mb - 0.00 in0.0 mm 0.00 in0.0 mm
09:10 AM 51.5°F10.8°C 42.0°F5.6°C 70% 3.5 mph N5.6 kmh N 4.6 mph7.4 kmh 30.61 in1036.6 mb - 0.00 in0.0 mm 0.00 in0.0 mm
09:15 AM 51.3°F10.7°C 42.6°F5.9°C 72% 2.3 mph N3.7 kmh N 3.5 mph5.6 kmh 30.62 in1036.9 mb - 0.00 in0.0 mm 0.00 in0.0 mm
09:20 AM 51.8°F11.0°C 42.3°F5.7°C 70% 3.5 mph NNE5.6 kmh NNE 3.5 mph5.6 kmh 30.61 in1036.6 mb - 0.00 in0.0 mm 0.00 in0.0 mm
09:25 AM 51.4°F10.8°C 42.3°F5.7°C 71% 2.3 mph NNE3.7 kmh NNE 3.5 mph5.6 kmh 30.61 in1036.6 mb - 0.00 in0.0 mm 0.00 in0.0 mm
09:30 AM 52.1°F11.2°C 42.9°F6.1°C 71% 3.5 mph N5.6 kmh N 3.5 mph5.6 kmh 30.61 in1036.6 mb - 0.00 in0.0 mm 0.00 in0.0 mm
09:35 AM 51.6°F10.9°C 41.8°F5.4°C 69% 3.5 mph NNW5.6 kmh NNW 4.6 mph7.4 kmh 30.61 in1036.6 mb - 0.00 in0.0 mm 0.00 in0.0 mm
09:40 AM 51.9°F11.1°C 42.4°F5.8°C 70% 3.5 mph N5.6 kmh N 3.5 mph5.6 kmh 30.61 in1036.6 mb - 0.00 in0.0 mm 0.00 in0.0 mm
09:45 AM 51.5°F10.8°C 42.0°F5.6°C 70% 1.2 mph NE1.9 kmh NE 2.3 mph3.7 kmh 30.61 in1036.6 mb - 0.00 in0.0 mm 0.00 in0.0 mm
09:50 AM 52.3°F11.3°C 43.1°F6.2°C 71% 2.3 mph NE3.7 kmh NE 3.5 mph5.6 kmh 30.61 in1036.6 mb - 0.00 in0.0 mm 0.00 in0.0 mm
09:55 AM 51.7°F10.9°C 41.9°F5.5°C 69% 3.5 mph NE5.6 kmh NE 4.6 mph7.4 kmh 30.61 in1036.6 mb - 0.00 in0.0 mm 0.00 in0.0 mm
10:00 AM 51.7°F10.9°C 42.6°F5.9°C 71% 3.5 mph NNE5.6 kmh NNE 8.1 mph13.0 kmh 30.61 in1036.6 mb - 0.00 in0.0 mm 0.00 in0.0 mm
10:10 AM 53.4°F11.9°C 43.9°F6.6°C 70% 4.6 mph N7.4 kmh N 5.8 mph9.3 kmh 30.61 in1036.6 mb - 0.00 in0.0 mm 0.00 in0.0 mm
10:15 AM 53.7°F12.1°C 43.8°F6.6°C 69% 2.3 mph NE3.7 kmh NE 3.5 mph5.6 kmh 30.61 in1036.6 mb - 0.00 in0.0 mm 0.00 in0.0 mm
10:20 AM 54.0°F12.2°C 43.7°F6.5°C 68% 1.2 mph N1.9 kmh N 3.5 mph5.6 kmh 30.61 in1036.6 mb - 0.00 in0.0 mm 0.00 in0.0 mm
10:25 AM 54.8°F12.7°C 43.7°F6.5°C 66% 2.3 mph N3.7 kmh N 3.5 mph5.6 kmh 30.61 in1036.6 mb - 0.00 in0.0 mm 0.00 in0.0 mm
10:30 AM 55.1°F12.8°C 42.3°F5.7°C 62% 4.6 mph NNE7.4 kmh NNE 5.8 mph9.3 kmh 30.61 in1036.6 mb - 0.00 in0.0 mm 0.00 in0.0 mm
10:35 AM 54.7°F12.6°C 42.7°F5.9°C 64% 2.3 mph NNE3.7 kmh NNE 4.6 mph7.4 kmh 30.60 in1036.2 mb - 0.00 in0.0 mm 0.00 in0.0 mm
10:40 AM 54.9°F12.7°C 42.1°F5.6°C 62% 3.5 mph N5.6 kmh N 8.1 mph13.0 kmh 30.60 in1036.2 mb - 0.00 in0.0 mm 0.00 in0.0 mm
10:45 AM 55.5°F13.1°C 43.1°F6.2°C 63% 2.3 mph NNE3.7 kmh NNE 5.8 mph9.3 kmh 30.60 in1036.2 mb - 0.00 in0.0 mm 0.00 in0.0 mm
10:50 AM 55.4°F13.0°C 42.2°F5.7°C 61% 3.5 mph NNE5.6 kmh NNE 8.1 mph13.0 kmh 30.60 in1036.2 mb - 0.00 in0.0 mm 0.00 in0.0 mm
10:55 AM 54.9°F12.7°C 39.9°F4.4°C 57% 5.8 mph NNE9.3 kmh NNE 9.2 mph14.8 kmh 30.60 in1036.2 mb - 0.00 in0.0 mm 0.00 in0.0 mm
11:00 AM 54.9°F12.7°C 40.4°F4.7°C 58% 3.5 mph NNE5.6 kmh NNE 8.1 mph13.0 kmh 30.60 in1036.2 mb - 0.00 in0.0 mm 0.00 in0.0 mm
11:10 AM 55.7°F13.2°C 40.7°F4.8°C 57% 3.5 mph NE5.6 kmh NE 6.9 mph11.1 kmh 30.59 in1035.9 mb - 0.00 in0.0 mm 0.00 in0.0 mm
11:15 AM 56.4°F13.6°C 40.4°F4.7°C 55% 3.5 mph NE5.6 kmh NE 5.8 mph9.3 kmh 30.59 in1035.9 mb - 0.00 in0.0 mm 0.00 in0.0 mm
11:20 AM 55.6°F13.1°C 39.7°F4.3°C 55% 2.3 mph NE3.7 kmh NE 8.1 mph13.0 kmh 30.59 in1035.9 mb - 0.00 in0.0 mm 0.00 in0.0 mm
11:25 AM 56.4°F13.6°C 40.4°F4.7°C 55% 5.8 mph NE9.3 kmh NE 10.4 mph16.7 kmh 30.59 in1035.9 mb - 0.00 in0.0 mm 0.00 in0.0 mm
11:30 AM 56.8°F13.8°C 39.8°F4.3°C 53% 2.3 mph NE3.7 kmh NE 4.6 mph7.4 kmh 30.59 in1035.9 mb - 0.00 in0.0 mm 0.00 in0.0 mm
11:35 AM 56.5°F13.6°C 41.9°F5.5°C 58% 2.3 mph N3.7 kmh N 3.5 mph5.6 kmh 30.58 in1035.6 mb - 0.00 in0.0 mm 0.00 in0.0 mm
11:40 AM 56.0°F13.3°C 38.6°F3.7°C 52% 3.5 mph NE5.6 kmh NE 4.6 mph7.4 kmh 30.58 in1035.6 mb - 0.00 in0.0 mm 0.00 in0.0 mm
11:45 AM 56.3°F13.5°C 38.9°F3.8°C 52% 3.5 mph NNE5.6 kmh NNE 3.5 mph5.6 kmh 30.58 in1035.6 mb - 0.00 in0.0 mm 0.00 in0.0 mm
11:50 AM 56.8°F13.8°C 37.3°F2.9°C 48% 3.5 mph ENE5.6 kmh ENE 4.6 mph7.4 kmh 30.58 in1035.6 mb - 0.00 in0.0 mm 0.00 in0.0 mm
11:55 AM 56.8°F13.8°C 40.8°F4.9°C 55% 2.3 mph NNE3.7 kmh NNE 3.5 mph5.6 kmh 30.58 in1035.6 mb - 0.00 in0.0 mm 0.00 in0.0 mm
12:00 PM 57.0°F13.9°C 37.5°F3.1°C 48% 5.8 mph NNE9.3 kmh NNE 9.2 mph14.8 kmh 30.57 in1035.2 mb - 0.00 in0.0 mm 0.00 in0.0 mm
12:10 PM 57.2°F14.0°C 34.3°F1.3°C 42% 3.5 mph ENE5.6 kmh ENE 4.6 mph7.4 kmh 30.57 in1035.2 mb - 0.00 in0.0 mm 0.00 in0.0 mm
12:15 PM 57.5°F14.2°C 32.7°F0.4°C 39% 3.5 mph NNE5.6 kmh NNE 3.5 mph5.6 kmh 30.57 in1035.2 mb - 0.00 in0.0 mm 0.00 in0.0 mm
12:20 PM 57.8°F14.3°C 33.6°F0.9°C 40% 3.5 mph NW5.6 kmh NW 5.8 mph9.3 kmh 30.57 in1035.2 mb - 0.00 in0.0 mm 0.00 in0.0 mm
12:25 PM 58.1°F14.5°C 35.7°F2.1°C 43% 2.3 mph NNE3.7 kmh NNE 3.5 mph5.6 kmh 30.57 in1035.2 mb - 0.00 in0.0 mm 0.00 in0.0 mm
12:30 PM 58.3°F14.6°C 32.8°F0.4°C 38% 3.5 mph E5.6 kmh E 8.1 mph13.0 kmh 30.57 in1035.2 mb - 0.00 in0.0 mm 0.00 in0.0 mm
12:35 PM 57.9°F14.4°C 29.7°F-1.3°C 34% 3.5 mph E5.6 kmh E 5.8 mph9.3 kmh 30.56 in1034.9 mb - 0.00 in0.0 mm 0.00 in0.0 mm
12:40 PM 58.3°F14.6°C 32.8°F0.4°C 38% 4.6 mph ENE7.4 kmh ENE 4.6 mph7.4 kmh 30.56 in1034.9 mb - 0.00 in0.0 mm 0.00 in0.0 mm
12:45 PM 58.6°F14.8°C 34.9°F1.6°C 41% 3.5 mph NE5.6 kmh NE 4.6 mph7.4 kmh 30.56 in1034.9 mb - 0.00 in0.0 mm 0.00 in0.0 mm
12:50 PM 58.0°F14.4°C 35.0°F1.7°C 42% 3.5 mph ENE5.6 kmh ENE 3.5 mph5.6 kmh 30.56 in1034.9 mb - 0.00 in0.0 mm 0.00 in0.0 mm
12:55 PM 58.0°F14.4°C 35.6°F2.0°C 43% 1.2 mph NNW1.9 kmh NNW 8.1 mph13.0 kmh 30.56 in1034.9 mb - 0.00 in0.0 mm 0.00 in0.0 mm
01:00 PM 59.1°F15.1°C 38.4°F3.6°C 46% 2.3 mph E3.7 kmh E 6.9 mph11.1 kmh 30.56 in1034.9 mb - 0.00 in0.0 mm 0.00 in0.0 mm
01:10 PM 59.3°F15.2°C 38.5°F3.6°C 46% 3.5 mph N5.6 kmh N 4.6 mph7.4 kmh 30.56 in1034.9 mb - 0.00 in0.0 mm 0.00 in0.0 mm
01:15 PM 59.2°F15.1°C 39.0°F3.9°C 47% 5.8 mph N9.3 kmh N 10.4 mph16.7 kmh 30.55 in1034.5 mb - 0.00 in0.0 mm 0.00 in0.0 mm
01:20 PM 57.9°F14.4°C 35.5°F1.9°C 43% 2.3 mph N3.7 kmh N 3.5 mph5.6 kmh 30.56 in1034.9 mb - 0.00 in0.0 mm 0.00 in0.0 mm
01:25 PM 58.6°F14.8°C 37.3°F2.9°C 45% 3.5 mph N5.6 kmh N 5.8 mph9.3 kmh 30.55 in1034.5 mb - 0.00 in0.0 mm 0.00 in0.0 mm
01:30 PM 57.8°F14.3°C 37.1°F2.8°C 46% 3.5 mph N5.6 kmh N 4.6 mph7.4 kmh 30.55 in1034.5 mb - 0.00 in0.0 mm 0.00 in0.0 mm
01:35 PM 57.6°F14.2°C 35.2°F1.8°C 43% 2.3 mph SSE3.7 kmh SSE 2.3 mph3.7 kmh 30.55 in1034.5 mb - 0.00 in0.0 mm 0.00 in0.0 mm
01:40 PM 58.0°F14.4°C 35.6°F2.0°C 43% 3.5 mph NNE5.6 kmh NNE 10.4 mph16.7 kmh 30.55 in1034.5 mb - 0.00 in0.0 mm 0.00 in0.0 mm
01:45 PM 58.2°F14.6°C 34.6°F1.4°C 41% 3.5 mph E5.6 kmh E 8.1 mph13.0 kmh 30.55 in1034.5 mb - 0.00 in0.0 mm 0.00 in0.0 mm
01:50 PM 58.9°F14.9°C 37.6°F3.1°C 45% 4.6 mph N7.4 kmh N 8.1 mph13.0 kmh 30.55 in1034.5 mb - 0.00 in0.0 mm 0.00 in0.0 mm
01:55 PM 58.5°F14.7°C 36.6°F2.6°C 44% 3.5 mph E5.6 kmh E 8.1 mph13.0 kmh 30.55 in1034.5 mb - 0.00 in0.0 mm 0.00 in0.0 mm
02:00 PM 58.2°F14.6°C 37.5°F3.1°C 46% 3.5 mph NNW5.6 kmh NNW 5.8 mph9.3 kmh 30.55 in1034.5 mb - 0.00 in0.0 mm 0.00 in0.0 mm
02:10 PM 58.3°F14.6°C 35.9°F2.2°C 43% 4.6 mph NE7.4 kmh NE 5.8 mph9.3 kmh 30.55 in1034.5 mb - 0.00 in0.0 mm 0.00 in0.0 mm
02:15 PM 58.6°F14.8°C 37.3°F2.9°C 45% 1.2 mph NE1.9 kmh NE 3.5 mph5.6 kmh 30.54 in1034.2 mb - 0.00 in0.0 mm 0.00 in0.0 mm
02:20 PM 59.5°F15.3°C 36.4°F2.4°C 42% 4.6 mph N7.4 kmh N 6.9 mph11.1 kmh 30.55 in1034.5 mb - 0.00 in0.0 mm 0.00 in0.0 mm
02:25 PM 58.3°F14.6°C 35.3°F1.8°C 42% 5.8 mph N9.3 kmh N 10.4 mph16.7 kmh 30.55 in1034.5 mb - 0.00 in0.0 mm 0.00 in0.0 mm
02:30 PM 57.8°F14.3°C 33.7°F0.9°C 40% 2.3 mph E3.7 kmh E 4.6 mph7.4 kmh 30.54 in1034.2 mb - 0.00 in0.0 mm 0.00 in0.0 mm
02:35 PM 58.5°F14.7°C 34.8°F1.6°C 41% 2.3 mph NNE3.7 kmh NNE 3.5 mph5.6 kmh 30.54 in1034.2 mb - 0.00 in0.0 mm 0.00 in0.0 mm
02:40 PM 59.0°F15.0°C 37.1°F2.8°C 44% 2.3 mph ENE3.7 kmh ENE 5.8 mph9.3 kmh 30.54 in1034.2 mb - 0.00 in0.0 mm 0.00 in0.0 mm
02:45 PM 58.9°F14.9°C 36.4°F2.4°C 43% 4.6 mph ENE7.4 kmh ENE 9.2 mph14.8 kmh 30.54 in1034.2 mb - 0.00 in0.0 mm 0.00 in0.0 mm
02:50 PM 59.2°F15.1°C 34.9°F1.6°C 40% 4.6 mph E7.4 kmh E 8.1 mph13.0 kmh 30.54 in1034.2 mb - 0.00 in0.0 mm 0.00 in0.0 mm
02:55 PM 59.2°F15.1°C 33.6°F0.9°C 38% 4.6 mph ENE7.4 kmh ENE 6.9 mph11.1 kmh 30.54 in1034.2 mb - 0.00 in0.0 mm 0.00 in0.0 mm
03:00 PM 59.3°F15.2°C 33.7°F0.9°C 38% 4.6 mph ENE7.4 kmh ENE 11.5 mph18.5 kmh 30.53 in1033.9 mb - 0.00 in0.0 mm 0.00 in0.0 mm
03:10 PM 58.2°F14.6°C 33.3°F0.7°C 39% 4.6 mph NE7.4 kmh NE 6.9 mph11.1 kmh 30.53 in1033.9 mb - 0.00 in0.0 mm 0.00 in0.0 mm
03:15 PM 58.4°F14.7°C 35.4°F1.9°C 42% 3.5 mph N5.6 kmh N 5.8 mph9.3 kmh 30.53 in1033.9 mb - 0.00 in0.0 mm 0.00 in0.0 mm
03:20 PM 58.5°F14.7°C 32.3°F0.2°C 37% 4.6 mph NNE7.4 kmh NNE 6.9 mph11.1 kmh 30.52 in1033.5 mb - 0.00 in0.0 mm 0.00 in0.0 mm
03:25 PM 58.9°F14.9°C 35.2°F1.8°C 41% 3.5 mph NE5.6 kmh NE 8.1 mph13.0 kmh 30.52 in1033.5 mb - 0.00 in0.0 mm 0.00 in0.0 mm
03:30 PM 58.3°F14.6°C 33.5°F0.8°C 39% 5.8 mph NNE9.3 kmh NNE 8.1 mph13.0 kmh 30.52 in1033.5 mb - 0.00 in0.0 mm 0.00 in0.0 mm
03:35 PM 57.8°F14.3°C 34.9°F1.6°C 42% 2.3 mph NNE3.7 kmh NNE 5.8 mph9.3 kmh 30.52 in1033.5 mb - 0.00 in0.0 mm 0.00 in0.0 mm
03:40 PM 57.9°F14.4°C 33.1°F0.6°C 39% 4.6 mph NE7.4 kmh NE 8.1 mph13.0 kmh 30.52 in1033.5 mb - 0.00 in0.0 mm 0.00 in0.0 mm
03:45 PM 58.3°F14.6°C 34.1°F1.2°C 40% 3.5 mph ENE5.6 kmh ENE 9.2 mph14.8 kmh 30.52 in1033.5 mb - 0.00 in0.0 mm 0.00 in0.0 mm
03:50 PM 58.4°F14.7°C 34.1°F1.2°C 40% 4.6 mph ENE7.4 kmh ENE 6.9 mph11.1 kmh 30.51 in1033.2 mb - 0.00 in0.0 mm 0.00 in0.0 mm
03:55 PM 58.6°F14.8°C 34.3°F1.3°C 40% 2.3 mph NE3.7 kmh NE 5.8 mph9.3 kmh 30.51 in1033.2 mb - 0.00 in0.0 mm 0.00 in0.0 mm
04:00 PM 58.6°F14.8°C 32.4°F0.2°C 37% 4.6 mph E7.4 kmh E 9.2 mph14.8 kmh 30.51 in1033.2 mb - 0.00 in0.0 mm 0.00 in0.0 mm
04:10 PM 58.7°F14.8°C 35.0°F1.7°C 41% 4.6 mph NE7.4 kmh NE 5.8 mph9.3 kmh 30.51 in1033.2 mb - 0.00 in0.0 mm 0.00 in0.0 mm
04:15 PM 58.3°F14.6°C 34.7°F1.5°C 41% 6.9 mph NE11.1 kmh NE 11.5 mph18.5 kmh 30.51 in1033.2 mb - 0.00 in0.0 mm 0.00 in0.0 mm
04:20 PM 58.1°F14.5°C 35.7°F2.1°C 43% 5.8 mph NE9.3 kmh NE 9.2 mph14.8 kmh 30.50 in1032.8 mb - 0.00 in0.0 mm 0.00 in0.0 mm
04:25 PM 58.0°F14.4°C 34.4°F1.3°C 41% 4.6 mph NNE7.4 kmh NNE 9.2 mph14.8 kmh 30.51 in1033.2 mb - 0.00 in0.0 mm 0.00 in0.0 mm
04:30 PM 58.0°F14.4°C 33.8°F1.0°C 40% 6.9 mph NE11.1 kmh NE 11.5 mph18.5 kmh 30.50 in1032.8 mb - 0.00 in0.0 mm 0.00 in0.0 mm
04:35 PM 57.8°F14.3°C 33.6°F0.9°C 40% 4.6 mph NE7.4 kmh NE 9.2 mph14.8 kmh 30.50 in1032.8 mb - 0.00 in0.0 mm 0.00 in0.0 mm
04:40 PM 58.0°F14.4°C 33.1°F0.6°C 39% 5.8 mph ENE9.3 kmh ENE 10.4 mph16.7 kmh 30.50 in1032.8 mb - 0.00 in0.0 mm 0.00 in0.0 mm
04:45 PM 57.6°F14.2°C 32.2°F0.1°C 38% 5.8 mph NE9.3 kmh NE 10.4 mph16.7 kmh 30.50 in1032.8 mb - 0.00 in0.0 mm 0.00 in0.0 mm
04:50 PM 57.5°F14.2°C 32.1°F0.1°C 38% 5.8 mph ENE9.3 kmh ENE 9.2 mph14.8 kmh 30.50 in1032.8 mb - 0.00 in0.0 mm 0.00 in0.0 mm
04:55 PM 57.5°F14.2°C 31.4°F-0.3°C 37% 3.5 mph ENE5.6 kmh ENE 9.2 mph14.8 kmh 30.50 in1032.8 mb - 0.00 in0.0 mm 0.00 in0.0 mm
05:00 PM 57.7°F14.3°C 32.2°F0.1°C 38% 5.8 mph NE9.3 kmh NE 11.5 mph18.5 kmh 30.50 in1032.8 mb - 0.00 in0.0 mm 0.00 in0.0 mm
05:10 PM 57.5°F14.2°C 33.3°F0.7°C 40% 2.3 mph NE3.7 kmh NE 3.5 mph5.6 kmh 30.50 in1032.8 mb - 0.00 in0.0 mm 0.00 in0.0 mm
05:15 PM 57.7°F14.3°C 32.9°F0.5°C 39% 4.6 mph NE7.4 kmh NE 9.2 mph14.8 kmh 30.49 in1032.5 mb - 0.00 in0.0 mm 0.00 in0.0 mm
05:20 PM 57.2°F14.0°C 31.8°F-0.1°C 38% 3.5 mph ENE5.6 kmh ENE 3.5 mph5.6 kmh 30.49 in1032.5 mb - 0.00 in0.0 mm 0.00 in0.0 mm
05:25 PM 57.2°F14.0°C 32.4°F0.2°C 39% 3.5 mph E5.6 kmh E 4.6 mph7.4 kmh 30.49 in1032.5 mb - 0.00 in0.0 mm 0.00 in0.0 mm
05:30 PM 57.1°F13.9°C 32.3°F0.2°C 39% 4.6 mph ENE7.4 kmh ENE 9.2 mph14.8 kmh 30.49 in1032.5 mb - 0.00 in0.0 mm 0.00 in0.0 mm
05:35 PM 56.8°F13.8°C 32.7°F0.4°C 40% 2.3 mph NE3.7 kmh NE 8.1 mph13.0 kmh 30.49 in1032.5 mb - 0.00 in0.0 mm 0.00 in0.0 mm
05:40 PM 56.8°F13.8°C 32.7°F0.4°C 40% 6.9 mph E11.1 kmh E 10.4 mph16.7 kmh 30.49 in1032.5 mb - 0.00 in0.0 mm 0.00 in0.0 mm
05:45 PM 56.8°F13.8°C 32.7°F0.4°C 40% 4.6 mph ENE7.4 kmh ENE 10.4 mph16.7 kmh 30.48 in1032.2 mb - 0.00 in0.0 mm 0.00 in0.0 mm
05:50 PM 56.9°F13.8°C 32.8°F0.4°C 40% 6.9 mph E11.1 kmh E 11.5 mph18.5 kmh 30.48 in1032.2 mb - 0.00 in0.0 mm 0.00 in0.0 mm
05:55 PM 56.5°F13.6°C 31.9°F-0.1°C 39% 3.5 mph ENE5.6 kmh ENE 6.9 mph11.1 kmh 30.48 in1032.2 mb - 0.00 in0.0 mm 0.00 in0.0 mm
06:00 PM 56.8°F13.8°C 32.7°F0.4°C 40% 4.6 mph ENE7.4 kmh ENE 8.1 mph13.0 kmh 30.49 in1032.5 mb - 0.00 in0.0 mm 0.00 in0.0 mm
06:10 PM 56.7°F13.7°C 32.6°F0.3°C 40% 2.3 mph ENE3.7 kmh ENE 6.9 mph11.1 kmh 30.48 in1032.2 mb - 0.00 in0.0 mm 0.00 in0.0 mm
06:15 PM 56.4°F13.6°C 31.8°F-0.1°C 39% 5.8 mph E9.3 kmh E 10.4 mph16.7 kmh 30.48 in1032.2 mb - 0.00 in0.0 mm 0.00 in0.0 mm
06:20 PM 56.4°F13.6°C 33.0°F0.6°C 41% 2.3 mph ENE3.7 kmh ENE 6.9 mph11.1 kmh 30.48 in1032.2 mb - 0.00 in0.0 mm 0.00 in0.0 mm
06:25 PM 56.2°F13.4°C 30.9°F-0.6°C 38% 5.8 mph E9.3 kmh E 8.1 mph13.0 kmh 30.48 in1032.2 mb - 0.00 in0.0 mm 0.00 in0.0 mm
06:30 PM 55.8°F13.2°C 31.2°F-0.4°C 39% 3.5 mph E5.6 kmh E 5.8 mph9.3 kmh 30.48 in1032.2 mb - 0.00 in0.0 mm 0.00 in0.0 mm
06:35 PM 55.4°F13.0°C 32.7°F0.4°C 42% 2.3 mph E3.7 kmh E 4.6 mph7.4 kmh 30.48 in1032.2 mb - 0.00 in0.0 mm 0.00 in0.0 mm
06:40 PM 54.9°F12.7°C 32.8°F0.4°C 43% 3.5 mph E5.6 kmh E 3.5 mph5.6 kmh 30.48 in1032.2 mb - 0.00 in0.0 mm 0.00 in0.0 mm
06:45 PM 54.5°F12.5°C 31.9°F-0.1°C 42% 1.2 mph E1.9 kmh E 2.3 mph3.7 kmh 30.48 in1032.2 mb - 0.00 in0.0 mm 0.00 in0.0 mm
06:50 PM 54.2°F12.3°C 32.8°F0.4°C 44% 2.3 mph E3.7 kmh E 3.5 mph5.6 kmh 30.48 in1032.2 mb - 0.00 in0.0 mm 0.00 in0.0 mm
06:55 PM 54.0°F12.2°C 32.5°F0.3°C 44% 1.2 mph ENE1.9 kmh ENE 2.3 mph3.7 kmh 30.48 in1032.2 mb - 0.00 in0.0 mm 0.00 in0.0 mm
07:00 PM 53.5°F11.9°C 33.7°F0.9°C 47% Calm Calm 2.3 mph3.7 kmh 30.48 in1032.2 mb - 0.00 in0.0 mm 0.00 in0.0 mm
07:10 PM 53.7°F12.1°C 32.9°F0.5°C 45% 1.2 mph ENE1.9 kmh ENE 2.3 mph3.7 kmh 30.48 in1032.2 mb - 0.00 in0.0 mm 0.00 in0.0 mm
07:15 PM 53.5°F11.9°C 34.8°F1.6°C 49% Calm Calm -- 30.48 in1032.2 mb - 0.00 in0.0 mm 0.00 in0.0 mm
07:20 PM 52.6°F11.4°C 35.0°F1.7°C 51% Calm Calm -- 30.48 in1032.2 mb - 0.00 in0.0 mm 0.00 in0.0 mm
07:25 PM 52.3°F11.3°C 34.7°F1.5°C 51% Calm Calm -- 30.48 in1032.2 mb - 0.00 in0.0 mm 0.00 in0.0 mm
07:30 PM 51.9°F11.1°C 35.7°F2.1°C 54% Calm Calm -- 30.48 in1032.2 mb - 0.00 in0.0 mm 0.00 in0.0 mm
07:35 PM 50.8°F10.4°C 36.1°F2.3°C 57% Calm Calm -- 30.48 in1032.2 mb - 0.00 in0.0 mm 0.00 in0.0 mm
07:40 PM 50.7°F10.4°C 36.4°F2.4°C 58% Calm Calm 2.3 mph3.7 kmh 30.48 in1032.2 mb - 0.00 in0.0 mm 0.00 in0.0 mm
07:45 PM 50.2°F10.1°C 36.5°F2.5°C 59% Calm Calm 1.2 mph1.9 kmh 30.48 in1032.2 mb - 0.00 in0.0 mm 0.00 in0.0 mm
07:50 PM 51.1°F10.6°C 35.5°F1.9°C 55% Calm Calm -- 30.48 in1032.2 mb - 0.00 in0.0 mm 0.00 in0.0 mm
07:55 PM 50.6°F10.3°C 36.8°F2.7°C 59% Calm Calm -- 30.48 in1032.2 mb - 0.00 in0.0 mm 0.00 in0.0 mm
08:00 PM 50.4°F10.2°C 35.3°F1.8°C 56% Calm Calm -- 30.48 in1032.2 mb - 0.00 in0.0 mm 0.00 in0.0 mm
08:10 PM 50.3°F10.2°C 36.1°F2.3°C 58% Calm Calm -- 30.48 in1032.2 mb - 0.00 in0.0 mm 0.00 in0.0 mm
08:15 PM 50.0°F10.0°C 36.2°F2.3°C 59% Calm Calm -- 30.48 in1032.2 mb - 0.00 in0.0 mm 0.00 in0.0 mm
08:20 PM 50.0°F10.0°C 37.9°F3.3°C 63% Calm Calm -- 30.48 in1032.2 mb - 0.00 in0.0 mm 0.00 in0.0 mm
08:25 PM 49.2°F9.6°C 38.7°F3.7°C 67% Calm Calm -- 30.48 in1032.2 mb - 0.00 in0.0 mm 0.00 in0.0 mm
08:30 PM 49.2°F9.6°C 37.9°F3.3°C 65% Calm Calm -- 30.48 in1032.2 mb - 0.00 in0.0 mm 0.00 in0.0 mm
08:35 PM 48.5°F9.2°C 36.5°F2.5°C 63% Calm Calm -- 30.48 in1032.2 mb - 0.00 in0.0 mm 0.00 in0.0 mm
08:40 PM 47.6°F8.7°C 36.4°F2.4°C 65% Calm Calm -- 30.48 in1032.2 mb - 0.00 in0.0 mm 0.00 in0.0 mm
08:45 PM 47.4°F8.6°C 36.3°F2.4°C 65% Calm Calm -- 30.48 in1032.2 mb - 0.00 in0.0 mm 0.00 in0.0 mm
08:50 PM 47.3°F8.5°C 36.9°F2.7°C 67% Calm Calm -- 30.48 in1032.2 mb - 0.00 in0.0 mm 0.00 in0.0 mm
08:55 PM 47.7°F8.7°C 37.7°F3.2°C 68% Calm Calm -- 30.48 in1032.2 mb - 0.00 in0.0 mm 0.00 in0.0 mm
09:00 PM 46.9°F8.3°C 37.6°F3.1°C 70% Calm Calm -- 30.48 in1032.2 mb - 0.00 in0.0 mm 0.00 in0.0 mm
09:10 PM 46.5°F8.1°C 36.9°F2.7°C 69% 1.2 mph SE1.9 kmh SE 2.3 mph3.7 kmh 30.48 in1032.2 mb - 0.00 in0.0 mm 0.00 in0.0 mm
09:15 PM 46.3°F7.9°C 37.0°F2.8°C 70% Calm Calm -- 30.48 in1032.2 mb - 0.00 in0.0 mm 0.00 in0.0 mm
09:20 PM 44.9°F7.2°C 36.8°F2.7°C 73% 1.2 mph E1.9 kmh E 2.3 mph3.7 kmh 30.48 in1032.2 mb - 0.00 in0.0 mm 0.00 in0.0 mm
09:25 PM 44.1°F6.7°C 36.6°F2.6°C 75% Calm Calm -- 30.48 in1032.2 mb - 0.00 in0.0 mm 0.00 in0.0 mm
09:30 PM 44.3°F6.8°C 36.8°F2.7°C 75% Calm Calm 1.2 mph1.9 kmh 30.48 in1032.2 mb - 0.00 in0.0 mm 0.00 in0.0 mm
09:35 PM 44.4°F6.9°C 36.6°F2.6°C 74% Calm Calm -- 30.48 in1032.2 mb - 0.00 in0.0 mm 0.00 in0.0 mm
09:40 PM 43.1°F6.2°C 36.4°F2.4°C 77% Calm Calm -- 30.48 in1032.2 mb - 0.00 in0.0 mm 0.00 in0.0 mm
09:45 PM 42.2°F5.7°C 36.4°F2.4°C 80% 1.2 mph E1.9 kmh E 2.3 mph3.7 kmh 30.48 in1032.2 mb - 0.00 in0.0 mm 0.00 in0.0 mm
09:50 PM 43.5°F6.4°C 36.5°F2.5°C 76% Calm Calm -- 30.48 in1032.2 mb - 0.00 in0.0 mm 0.00 in0.0 mm
09:55 PM 43.9°F6.6°C 36.1°F2.3°C 74% Calm Calm -- 30.48 in1032.2 mb - 0.00 in0.0 mm 0.00 in0.0 mm
10:00 PM 43.5°F6.4°C 36.1°F2.3°C 75% Calm Calm -- 30.48 in1032.2 mb - 0.00 in0.0 mm 0.00 in0.0 mm
10:10 PM 42.6°F5.9°C 35.9°F2.2°C 77% Calm Calm -- 30.48 in1032.2 mb - 0.00 in0.0 mm 0.00 in0.0 mm
10:15 PM 43.2°F6.2°C 36.1°F2.3°C 76% Calm Calm -- 30.48 in1032.2 mb - 0.00 in0.0 mm 0.00 in0.0 mm
10:20 PM 43.0°F6.1°C 35.9°F2.2°C 76% Calm Calm -- 30.48 in1032.2 mb - 0.00 in0.0 mm 0.00 in0.0 mm
10:25 PM 41.8°F5.4°C 35.1°F1.7°C 77% Calm Calm -- 30.47 in1031.8 mb - 0.00 in0.0 mm 0.00 in0.0 mm
10:30 PM 41.3°F5.2°C 36.3°F2.4°C 82% Calm Calm -- 30.47 in1031.8 mb - 0.00 in0.0 mm 0.00 in0.0 mm
10:35 PM 41.5°F5.3°C 36.4°F2.4°C 82% Calm Calm -- 30.47 in1031.8 mb - 0.00 in0.0 mm 0.00 in0.0 mm
10:40 PM 41.5°F5.3°C 35.8°F2.1°C 80% Calm Calm -- 30.47 in1031.8 mb - 0.00 in0.0 mm 0.00 in0.0 mm
10:45 PM 41.4°F5.2°C 35.4°F1.9°C 79% Calm Calm -- 30.47 in1031.8 mb - 0.00 in0.0 mm 0.00 in0.0 mm
10:50 PM 40.9°F4.9°C 34.9°F1.6°C 79% Calm Calm -- 30.47 in1031.8 mb - 0.00 in0.0 mm 0.00 in0.0 mm
10:55 PM 40.7°F4.8°C 35.0°F1.7°C 80% Calm Calm -- 30.47 in1031.8 mb - 0.00 in0.0 mm 0.00 in0.0 mm
11:00 PM 40.6°F4.8°C 35.3°F1.8°C 81% Calm Calm -- 30.47 in1031.8 mb - 0.00 in0.0 mm 0.00 in0.0 mm
11:10 PM 40.2°F4.6°C 34.5°F1.4°C 80% Calm Calm -- 30.47 in1031.8 mb - 0.00 in0.0 mm 0.00 in0.0 mm
11:15 PM 38.1°F3.4°C 32.4°F0.2°C 80% Calm Calm -- 30.47 in1031.8 mb - 0.00 in0.0 mm 0.00 in0.0 mm
11:20 PM 37.7°F3.2°C 33.6°F0.9°C 85% Calm Calm -- 30.47 in1031.8 mb - 0.00 in0.0 mm 0.00 in0.0 mm
11:25 PM 37.8°F3.2°C 33.6°F0.9°C 85% Calm Calm -- 30.47 in1031.8 mb - 0.00 in0.0 mm 0.00 in0.0 mm
11:30 PM 37.8°F3.2°C 34.0°F1.1°C 86% Calm Calm -- 30.47 in1031.8 mb - 0.00 in0.0 mm 0.00 in0.0 mm
11:35 PM 38.5°F3.6°C 34.6°F1.4°C 86% Calm Calm -- 30.47 in1031.8 mb - 0.00 in0.0 mm 0.00 in0.0 mm
11:40 PM 38.1°F3.4°C 33.4°F0.8°C 83% Calm Calm -- 30.47 in1031.8 mb - 0.00 in0.0 mm 0.00 in0.0 mm
11:45 PM 37.8°F3.2°C 33.7°F0.9°C 85% Calm Calm -- 30.47 in1031.8 mb - 0.00 in0.0 mm 0.00 in0.0 mm
11:50 PM 37.7°F3.2°C 33.0°F0.6°C 83% Calm Calm -- 30.47 in1031.8 mb - 0.00 in0.0 mm 0.00 in0.0 mm
11:55 PM 38.1°F3.4°C 34.3°F1.3°C 86% Calm Calm -- 30.46 in1031.5 mb - 0.00 in0.0 mm 0.00 in0.0 mm